Time;durP1;ratioP1;P1;durP2;ratioP2;P2;SDS_P1;SDS_P2;PMS_P1;PMS_P2;Temp;Humidity;BMP_temperature;BMP_pressure;BME280_temperature;BME280_humidity;BME280_pressure;Samples;Min_cycle;Max_cycle;Signal;HPM_P1;HPM_P2
2023/03/24 00:02:04;;;;;;;0.20;0.20;;;10.30;99.90;;;;;;5049282;28;21162;-84
2023/03/24 00:04:29;;;;;;;0.20;0.20;;;10.30;99.90;;;;;;5051140;28;20674;-84
2023/03/24 00:06:55;;;;;;;0.20;0.20;;;10.40;99.90;;;;;;5058513;28;20211;-83
2023/03/24 00:09:21;;;;;;;0.20;0.20;;;10.40;99.90;;;;;;5048524;28;20506;-84
2023/03/24 00:11:47;;;;;;;0.20;0.20;;;10.40;99.90;;;;;;5043961;28;20288;-84
2023/03/24 00:14:12;;;;;;;0.20;0.20;;;10.40;99.90;;;;;;5041214;28;20190;-84
2023/03/24 00:16:44;;;;;;;0.20;0.20;;;10.50;99.90;;;;;;5046310;28;20442;-84
2023/03/24 00:19:12;;;;;;;0.20;0.20;;;10.40;99.90;;;;;;5039695;28;20202;-84
2023/03/24 00:21:38;;;;;;;0.20;0.20;;;10.40;99.90;;;;;;5050414;28;20437;-82
2023/03/24 00:24:06;;;;;;;0.20;0.20;;;10.40;99.90;;;;;;5047973;28;20509;-83
2023/03/24 00:26:32;;;;;;;0.20;0.20;;;10.40;99.90;;;;;;5047060;28;20191;-83
2023/03/24 00:28:58;;;;;;;0.20;0.20;;;10.40;99.90;;;;;;5031490;28;20450;-82
2023/03/24 00:31:24;;;;;;;0.10;0.10;;;10.30;99.90;;;;;;5036206;28;20441;-83
2023/03/24 00:33:50;;;;;;;0.20;0.20;;;10.30;99.90;;;;;;5049445;28;20179;-82
2023/03/24 00:36:19;;;;;;;0.20;0.20;;;10.30;99.90;;;;;;5048537;28;20447;-83
2023/03/24 00:38:46;;;;;;;0.20;0.20;;;10.10;99.90;;;;;;5049761;28;20452;-82
2023/03/24 00:41:12;;;;;;;0.20;0.20;;;10.20;99.90;;;;;;5047629;28;20523;-83
2023/03/24 00:43:38;;;;;;;0.20;0.20;;;10.20;99.90;;;;;;5038198;28;20664;-83
2023/03/24 00:46:09;;;;;;;0.20;0.20;;;10.20;99.90;;;;;;5043509;28;20538;-84
2023/03/24 00:48:37;;;;;;;0.20;0.20;;;10.20;99.90;;;;;;5048601;28;20485;-83
2023/03/24 00:51:06;;;;;;;0.20;0.20;;;10.20;99.90;;;;;;5050294;28;20806;-82
2023/03/24 00:53:33;;;;;;;0.13;0.13;;;10.20;99.90;;;;;;5049554;28;20457;-83
2023/03/24 00:55:59;;;;;;;0.20;0.20;;;10.30;99.90;;;;;;5041213;28;20545;-83
2023/03/24 00:58:25;;;;;;;0.20;0.20;;;10.20;99.90;;;;;;5044431;28;20479;-82
2023/03/24 01:00:54;;;;;;;0.20;0.20;;;10.20;99.90;;;;;;5041574;28;20372;-83
2023/03/24 01:03:23;;;;;;;0.30;0.30;;;10.30;99.90;;;;;;5048395;28;20277;-82
2023/03/24 01:05:49;;;;;;;0.20;0.20;;;10.20;99.90;;;;;;5043110;28;20487;-82
2023/03/24 01:08:20;;;;;;;0.20;0.20;;;10.30;99.90;;;;;;5043383;28;20874;-82
2023/03/24 01:10:52;;;;;;;0.20;0.20;;;10.30;99.90;;;;;;5046348;28;20187;-82
2023/03/24 01:13:28;;;;;;;0.10;0.10;;;10.30;99.90;;;;;;5048536;28;20451;-82
2023/03/24 01:15:54;;;;;;;0.20;0.20;;;10.30;99.90;;;;;;5043287;28;20436;-84
2023/03/24 01:18:22;;;;;;;0.20;0.20;;;10.40;99.90;;;;;;5048950;28;20603;-82
2023/03/24 01:20:49;;;;;;;0.20;0.20;;;10.30;99.90;;;;;;5048705;28;20425;-82
2023/03/24 01:23:18;;;;;;;0.20;0.20;;;10.30;99.90;;;;;;5047846;28;20445;-82
2023/03/24 01:25:46;;;;;;;0.20;0.20;;;10.20;99.90;;;;;;5048628;28;20425;-82
2023/03/24 01:28:13;;;;;;;0.20;0.20;;;10.20;99.90;;;;;;5048504;28;20535;-82
2023/03/24 01:30:39;;;;;;;0.20;0.20;;;10.20;99.90;;;;;;5042794;28;20441;-82
2023/03/24 01:33:05;;;;;;;0.20;0.20;;;10.30;99.90;;;;;;5047549;28;20499;-82
2023/03/24 01:35:31;;;;;;;0.20;0.20;;;10.20;99.90;;;;;;5049258;28;20835;-82
2023/03/24 01:37:57;;;;;;;0.20;0.20;;;10.20;99.90;;;;;;5048642;28;20449;-81
2023/03/24 01:40:28;;;;;;;0.20;0.20;;;10.10;99.90;;;;;;5049834;28;20557;-82
2023/03/24 01:42:53;;;;;;;0.20;0.20;;;10.20;99.90;;;;;;5047802;28;20454;-81
2023/03/24 01:45:37;;;;;;;0.13;0.13;;;10.10;99.90;;;;;;5044645;28;20441;-80
2023/03/24 01:48:16;;;;;;;0.20;0.20;;;10.10;99.90;;;;;;5043596;28;20582;-83
2023/03/24 01:51:09;;;;;;;0.20;0.20;;;10.10;99.90;;;;;;5049481;28;20449;-83
2023/03/24 01:53:40;;;;;;;0.13;0.13;;;10.20;99.90;;;;;;5043326;28;20507;-83
2023/03/24 01:56:07;;;;;;;0.20;0.20;;;10.20;99.90;;;;;;5046938;28;20556;-82
2023/03/24 01:58:34;;;;;;;0.10;0.10;;;10.10;99.90;;;;;;5046064;28;20433;-82
2023/03/24 02:01:00;;;;;;;0.20;0.20;;;10.10;99.90;;;;;;5046463;28;20441;-82
2023/03/24 02:03:29;;;;;;;0.20;0.20;;;10.20;99.90;;;;;;5049618;28;20859;-81
2023/03/24 02:05:56;;;;;;;0.20;0.20;;;10.10;99.90;;;;;;5047148;28;20182;-82
2023/03/24 02:08:35;;;;;;;0.20;0.20;;;10.10;99.90;;;;;;5047969;28;20618;-81
2023/03/24 02:11:01;;;;;;;0.20;0.20;;;10.20;99.90;;;;;;5063850;28;20420;-80
2023/03/24 02:13:27;;;;;;;0.20;0.20;;;10.00;99.90;;;;;;5048139;28;20537;-83
2023/03/24 02:16:11;;;;;;;0.20;0.20;;;10.10;99.90;;;;;;5040793;28;20949;-81
2023/03/24 02:19:36;;;;;;;0.20;0.20;;;10.00;99.90;;;;;;5046835;28;20929;-82
2023/03/24 02:22:26;;;;;;;0.20;0.20;;;10.00;99.90;;;;;;5062887;28;20507;-80
2023/03/24 02:25:20;;;;;;;0.20;0.20;;;10.10;99.90;;;;;;5042080;28;20437;-82
2023/03/24 02:28:23;;;;;;;0.20;0.20;;;10.20;99.90;;;;;;5042076;28;21045;-81
2023/03/24 02:31:00;;;;;;;0.20;0.20;;;10.00;99.90;;;;;;5035408;28;20429;-81
2023/03/24 02:33:38;;;;;;;0.20;0.20;;;10.00;99.90;;;;;;5048797;28;20445;-81
2023/03/24 02:36:25;;;;;;;0.20;0.20;;;10.10;99.90;;;;;;5051090;28;20796;-81
2023/03/24 02:39:32;;;;;;;0.20;0.20;;;9.90;99.90;;;;;;5051021;28;20825;-83
2023/03/24 02:42:14;;;;;;;0.20;0.20;;;10.10;99.90;;;;;;5048163;28;20453;-82
2023/03/24 02:45:05;;;;;;;0.20;0.20;;;10.00;99.90;;;;;;5037644;28;20473;-81
2023/03/24 02:48:01;;;;;;;0.20;0.20;;;9.90;99.90;;;;;;5032912;28;20532;-81
2023/03/24 02:50:59;;;;;;;0.20;0.20;;;10.00;99.90;;;;;;5051517;28;20524;-82
2023/03/24 02:53:53;;;;;;;0.20;0.20;;;10.00;99.90;;;;;;5026464;28;20460;-81
2023/03/24 02:56:32;;;;;;;0.20;0.20;;;10.00;99.90;;;;;;5046660;28;20437;-81
2023/03/24 02:59:04;;;;;;;0.20;0.20;;;10.00;99.90;;;;;;5047239;28;20456;-82
2023/03/24 03:01:53;;;;;;;0.20;0.20;;;10.00;99.90;;;;;;5050216;28;20823;-81
2023/03/24 03:04:28;;;;;;;0.20;0.20;;;10.00;99.90;;;;;;5049202;28;20449;-82
2023/03/24 03:06:57;;;;;;;0.20;0.20;;;10.00;99.90;;;;;;5052032;28;20460;-82
2023/03/24 03:09:26;;;;;;;0.20;0.20;;;9.90;99.90;;;;;;5051858;28;20453;-83
2023/03/24 03:11:54;;;;;;;0.20;0.20;;;9.90;99.90;;;;;;5048902;28;20441;-81
2023/03/24 03:14:27;;;;;;;0.20;0.20;;;10.00;99.90;;;;;;5050468;28;20441;-82
2023/03/24 03:17:18;;;;;;;0.20;0.20;;;9.90;99.90;;;;;;5052509;28;20413;-82
2023/03/24 03:19:52;;;;;;;0.20;0.20;;;10.00;99.90;;;;;;5044832;28;20530;-81
2023/03/24 03:22:24;;;;;;;0.20;0.20;;;9.80;99.90;;;;;;5044016;28;20498;-82
2023/03/24 03:24:53;;;;;;;0.20;0.20;;;9.90;99.90;;;;;;5049944;28;20937;-81
2023/03/24 03:27:26;;;;;;;0.20;0.20;;;9.80;99.90;;;;;;5049564;28;20477;-81
2023/03/24 03:29:59;;;;;;;0.20;0.20;;;9.90;99.90;;;;;;5047858;28;20532;-81
2023/03/24 03:32:30;;;;;;;0.10;0.10;;;9.80;99.90;;;;;;5046163;28;20468;-80
2023/03/24 03:35:15;;;;;;;0.20;0.20;;;10.00;99.90;;;;;;5046613;28;20437;-82
2023/03/24 03:38:25;;;;;;;0.20;0.20;;;9.90;99.90;;;;;;5039210;28;21073;-82
2023/03/24 03:40:54;;;;;;;0.20;0.20;;;9.90;99.90;;;;;;5046996;28;20445;-82
2023/03/24 03:43:21;;;;;;;0.20;0.20;;;10.00;99.90;;;;;;5048153;28;20449;-82
2023/03/24 03:45:46;;;;;;;0.20;0.20;;;9.90;99.90;;;;;;5046857;28;20945;-82
2023/03/24 03:48:12;;;;;;;0.20;0.20;;;9.80;99.90;;;;;;5041532;28;20538;-82
2023/03/24 03:50:38;;;;;;;0.20;0.20;;;9.80;99.90;;;;;;5048628;28;20257;-82
2023/03/24 03:53:05;;;;;;;0.20;0.20;;;9.90;99.90;;;;;;5050290;28;20178;-82
2023/03/24 03:55:33;;;;;;;0.20;0.20;;;9.80;99.90;;;;;;5042125;28;20294;-82
2023/03/24 03:57:58;;;;;;;0.20;0.20;;;10.00;99.90;;;;;;5047721;28;20815;-81
2023/03/24 04:00:24;;;;;;;0.20;0.20;;;9.90;99.90;;;;;;5050671;28;20443;-81
2023/03/24 04:03:11;;;;;;;0.20;0.20;;;9.90;99.90;;;;;;5050397;28;20189;-81
2023/03/24 04:05:44;;;;;;;0.20;0.20;;;9.80;99.90;;;;;;5046503;28;20231;-81
2023/03/24 04:08:22;;;;;;;0.10;0.10;;;9.80;99.90;;;;;;5045309;28;20505;-81
2023/03/24 04:11:35;;;;;;;0.20;0.20;;;9.90;99.90;;;;;;5045655;28;20507;-82
2023/03/24 04:14:32;;;;;;;0.10;0.10;;;9.80;99.90;;;;;;5041149;28;20451;-81
2023/03/24 04:16:57;;;;;;;0.20;0.20;;;9.90;99.90;;;;;;5046428;28;20460;-79
2023/03/24 04:19:40;;;;;;;0.17;0.17;;;9.90;99.90;;;;;;5031581;28;20446;-81
2023/03/24 04:22:38;;;;;;;0.10;0.10;;;9.80;99.90;;;;;;5041982;28;20229;-81
2023/03/24 04:25:15;;;;;;;0.20;0.20;;;9.80;99.90;;;;;;5025013;28;20994;-81
2023/03/24 04:27:55;;;;;;;0.20;0.20;;;9.90;99.90;;;;;;5044290;28;20543;-81
2023/03/24 04:30:45;;;;;;;0.20;0.20;;;9.80;99.90;;;;;;5049674;28;20449;-80
2023/03/24 04:33:16;;;;;;;0.20;0.20;;;10.00;99.90;;;;;;5052401;28;20515;-80
2023/03/24 04:35:48;;;;;;;0.20;0.20;;;9.90;99.90;;;;;;5046834;28;21303;-80
2023/03/24 04:38:17;;;;;;;0.20;0.20;;;10.00;99.90;;;;;;5048368;28;20455;-81
2023/03/24 04:40:48;;;;;;;0.20;0.20;;;9.90;99.90;;;;;;5046566;28;20967;-80
2023/03/24 04:43:16;;;;;;;0.20;0.20;;;9.90;99.90;;;;;;5036405;28;20458;-81
2023/03/24 04:45:48;;;;;;;0.13;0.13;;;10.00;99.90;;;;;;5046717;28;21039;-80
2023/03/24 04:48:17;;;;;;;0.20;0.20;;;9.90;99.90;;;;;;5049070;28;20491;-80
2023/03/24 04:50:55;;;;;;;0.17;0.17;;;9.90;99.90;;;;;;5049107;28;20546;-81
2023/03/24 04:53:20;;;;;;;0.10;0.10;;;10.00;99.90;;;;;;5048872;28;20449;-81
2023/03/24 04:55:49;;;;;;;0.20;0.20;;;10.00;99.90;;;;;;5040413;28;21103;-81
2023/03/24 04:58:16;;;;;;;0.20;0.20;;;10.00;99.90;;;;;;5028877;28;20230;-83
2023/03/24 05:00:43;;;;;;;0.20;0.20;;;10.00;99.90;;;;;;5034740;28;20433;-83
2023/03/24 05:03:15;;;;;;;0.20;0.20;;;10.00;99.90;;;;;;5040015;28;20934;-82
2023/03/24 05:05:42;;;;;;;0.20;0.20;;;10.10;99.90;;;;;;5040630;28;20519;-81
2023/03/24 05:08:08;;;;;;;0.10;0.10;;;10.00;99.90;;;;;;5047762;28;20476;-83
2023/03/24 05:10:34;;;;;;;0.10;0.10;;;10.00;99.90;;;;;;5047865;28;20445;-83
2023/03/24 05:13:00;;;;;;;0.10;0.10;;;10.10;99.90;;;;;;5044827;28;20191;-81
2023/03/24 05:15:26;;;;;;;0.20;0.20;;;10.00;99.90;;;;;;5044674;28;20438;-83
2023/03/24 05:17:52;;;;;;;0.10;0.10;;;10.10;99.90;;;;;;5049835;28;20425;-81
2023/03/24 05:20:17;;;;;;;0.20;0.20;;;10.10;99.90;;;;;;5048674;28;20419;-82
2023/03/24 05:22:44;;;;;;;0.20;0.20;;;10.10;99.90;;;;;;5046085;28;20182;-82
2023/03/24 05:25:09;;;;;;;0.20;0.20;;;10.00;99.90;;;;;;5047974;28;20170;-83
2023/03/24 05:27:35;;;;;;;0.20;0.20;;;10.10;99.90;;;;;;5048163;28;20530;-81
2023/03/24 05:30:00;;;;;;;0.20;0.20;;;10.00;99.90;;;;;;5048508;28;20937;-81
2023/03/24 05:32:26;;;;;;;0.17;0.17;;;10.10;99.90;;;;;;5048470;28;20675;-81
2023/03/24 05:34:52;;;;;;;0.20;0.20;;;10.20;99.90;;;;;;5048921;28;20265;-81
2023/03/24 05:37:17;;;;;;;0.20;0.20;;;10.10;99.90;;;;;;5050676;28;20183;-81
2023/03/24 05:39:43;;;;;;;0.10;0.10;;;10.10;99.90;;;;;;5046204;28;20268;-81
2023/03/24 05:42:09;;;;;;;0.10;0.10;;;10.20;99.90;;;;;;5045038;28;20183;-83
2023/03/24 05:44:35;;;;;;;0.20;0.20;;;10.20;99.90;;;;;;5050462;28;20611;-84
2023/03/24 05:47:01;;;;;;;0.10;0.10;;;10.20;99.90;;;;;;5047103;28;20564;-82
2023/03/24 05:49:27;;;;;;;0.20;0.20;;;10.20;99.90;;;;;;5038193;28;20711;-81
2023/03/24 05:51:53;;;;;;;0.20;0.20;;;10.20;99.90;;;;;;5029968;28;20421;-82
2023/03/24 05:54:18;;;;;;;0.20;0.20;;;10.30;99.90;;;;;;5045904;28;20658;-84
2023/03/24 05:56:44;;;;;;;0.20;0.20;;;10.30;99.90;;;;;;5041579;28;20190;-81
2023/03/24 05:59:10;;;;;;;0.10;0.10;;;10.20;99.90;;;;;;5031532;28;20202;-81
2023/03/24 06:01:36;;;;;;;0.20;0.20;;;10.30;99.90;;;;;;5039413;28;20919;-84
2023/03/24 06:04:01;;;;;;;0.10;0.10;;;10.40;99.90;;;;;;5048025;28;20437;-82
2023/03/24 06:06:27;;;;;;;0.20;0.20;;;10.30;99.90;;;;;;5045112;28;20214;-84
2023/03/24 06:08:53;;;;;;;0.20;0.20;;;10.30;99.90;;;;;;5047865;28;20588;-81
2023/03/24 06:11:19;;;;;;;0.20;0.20;;;10.40;99.90;;;;;;5045431;28;20241;-85
2023/03/24 06:13:45;;;;;;;0.20;0.20;;;10.40;99.90;;;;;;5047500;28;22168;-82
2023/03/24 06:16:11;;;;;;;0.10;0.10;;;10.40;99.90;;;;;;5048901;28;20485;-82
2023/03/24 06:18:39;;;;;;;0.10;0.10;;;10.50;99.90;;;;;;5049702;28;20214;-82
2023/03/24 06:21:05;;;;;;;0.20;0.20;;;10.50;99.90;;;;;;5045874;28;21021;-82
2023/03/24 06:23:32;;;;;;;0.10;0.10;;;10.50;99.90;;;;;;5049717;28;20456;-81
2023/03/24 06:26:00;;;;;;;0.10;0.10;;;10.50;99.90;;;;;;5049916;28;20451;-80
2023/03/24 06:28:29;;;;;;;0.10;0.10;;;10.50;99.90;;;;;;5047318;28;20583;-81
2023/03/24 06:30:55;;;;;;;0.10;0.10;;;10.40;99.90;;;;;;5044552;28;20447;-84
2023/03/24 06:33:24;;;;;;;0.20;0.20;;;10.50;99.90;;;;;;5040766;28;20457;-81
2023/03/24 06:35:53;;;;;;;0.10;0.10;;;10.50;99.90;;;;;;5043490;28;20510;-84
2023/03/24 06:38:18;;;;;;;0.10;0.10;;;10.60;99.90;;;;;;5052652;28;20427;-84
2023/03/24 06:40:44;;;;;;;0.20;0.20;;;10.60;99.90;;;;;;5049383;28;20442;-82
2023/03/24 06:43:10;;;;;;;0.20;0.20;;;10.70;99.90;;;;;;5045405;28;20595;-83
2023/03/24 06:45:38;;;;;;;0.20;0.20;;;10.60;99.90;;;;;;5043613;28;20452;-84
2023/03/24 06:48:03;;;;;;;0.20;0.20;;;10.80;99.90;;;;;;5050291;28;20317;-82
2023/03/24 06:50:32;;;;;;;0.20;0.20;;;10.80;99.90;;;;;;5047834;28;20914;-82
2023/03/24 06:52:58;;;;;;;0.20;0.20;;;10.80;99.90;;;;;;5051065;28;20237;-84
2023/03/24 06:55:24;;;;;;;0.20;0.20;;;10.80;99.90;;;;;;5044557;28;20878;-82
2023/03/24 06:57:49;;;;;;;0.20;0.20;;;10.80;99.90;;;;;;5044934;28;20545;-81
2023/03/24 07:00:15;;;;;;;0.20;0.20;;;10.90;99.90;;;;;;5048220;28;20281;-80
2023/03/24 07:02:41;;;;;;;0.10;0.10;;;10.90;99.90;;;;;;5042766;28;20642;-84
2023/03/24 07:05:08;;;;;;;0.10;0.10;;;10.90;99.90;;;;;;5050106;28;20710;-83
2023/03/24 07:07:34;;;;;;;0.20;0.20;;;10.70;99.90;;;;;;5050926;28;20484;-81
2023/03/24 07:10:00;;;;;;;0.20;0.20;;;10.50;99.90;;;;;;5048376;28;20449;-83
2023/03/24 07:12:26;;;;;;;0.20;0.20;;;10.30;99.90;;;;;;5041055;28;20464;-82
2023/03/24 07:14:51;;;;;;;0.20;0.20;;;10.10;99.90;;;;;;5045463;28;20832;-84
2023/03/24 07:17:17;;;;;;;0.20;0.20;;;10.10;99.90;;;;;;5045626;28;20191;-81
2023/03/24 07:19:44;;;;;;;0.20;0.20;;;10.00;99.90;;;;;;5045577;28;20190;-80
2023/03/24 07:22:10;;;;;;;0.20;0.20;;;10.00;99.90;;;;;;5042734;28;20198;-84
2023/03/24 07:24:36;;;;;;;0.20;0.20;;;9.90;99.90;;;;;;5046675;28;20776;-84
2023/03/24 07:27:01;;;;;;;0.17;0.17;;;10.00;99.90;;;;;;5038916;28;20211;-84
2023/03/24 07:29:27;;;;;;;0.20;0.20;;;10.00;99.90;;;;;;5039985;28;20635;-84
2023/03/24 07:31:57;;;;;;;0.20;0.20;;;10.00;99.90;;;;;;5041507;28;20440;-81
2023/03/24 07:34:23;;;;;;;0.20;0.20;;;10.00;99.90;;;;;;5038790;28;20214;-82
2023/03/24 07:36:49;;;;;;;0.20;0.20;;;10.00;99.90;;;;;;5044171;28;20437;-83
2023/03/24 07:39:15;;;;;;;0.10;0.10;;;10.00;99.90;;;;;;5041257;28;20449;-82
2023/03/24 07:41:40;;;;;;;0.20;0.20;;;10.00;99.90;;;;;;5043689;28;20266;-84
2023/03/24 07:44:06;;;;;;;0.20;0.20;;;9.90;99.90;;;;;;5049873;28;20596;-82
2023/03/24 07:46:32;;;;;;;0.20;0.20;;;10.10;99.90;;;;;;5045686;28;20191;-85
2023/03/24 07:48:57;;;;;;;0.17;0.17;;;10.00;99.90;;;;;;5041068;28;20242;-84
2023/03/24 07:51:23;;;;;;;0.20;0.20;;;10.20;99.90;;;;;;5050141;28;20186;-83
2023/03/24 07:53:48;;;;;;;0.10;0.10;;;10.30;99.90;;;;;;5046317;28;20713;-82
2023/03/24 07:56:14;;;;;;;0.20;0.20;;;10.40;99.90;;;;;;5036425;28;20191;-83
2023/03/24 07:58:40;;;;;;;0.20;0.20;;;10.50;99.90;;;;;;5046687;28;20197;-81
2023/03/24 08:01:09;;;;;;;0.10;0.10;;;10.50;99.90;;;;;;5036360;28;20437;-82
2023/03/24 08:03:35;;;;;;;0.20;0.20;;;10.70;99.90;;;;;;5048388;28;20174;-81
2023/03/24 08:06:01;;;;;;;0.20;0.20;;;10.60;99.90;;;;;;5050137;28;20563;-82
2023/03/24 08:08:26;;;;;;;0.20;0.20;;;10.60;99.90;;;;;;5046025;28;20564;-82
2023/03/24 08:10:52;;;;;;;0.20;0.20;;;10.70;99.90;;;;;;5052013;28;20597;-82
2023/03/24 08:13:18;;;;;;;0.20;0.20;;;10.90;99.90;;;;;;5050374;28;20605;-83
2023/03/24 08:15:43;;;;;;;0.20;0.20;;;11.00;99.90;;;;;;5046393;28;20170;-82
2023/03/24 08:18:09;;;;;;;0.20;0.20;;;11.10;99.90;;;;;;5045313;28;20408;-83
2023/03/24 08:20:35;;;;;;;0.20;0.20;;;11.10;99.90;;;;;;5042711;28;20217;-82
2023/03/24 08:23:03;;;;;;;0.20;0.20;;;11.20;99.90;;;;;;5048737;28;20281;-83
2023/03/24 08:25:29;;;;;;;0.20;0.20;;;11.00;99.90;;;;;;5042697;28;20442;-81
2023/03/24 08:27:55;;;;;;;0.20;0.20;;;10.90;99.90;;;;;;5044949;28;20524;-82
2023/03/24 08:30:23;;;;;;;0.20;0.20;;;10.80;99.90;;;;;;5047302;28;20494;-82
2023/03/24 08:32:55;;;;;;;0.20;0.20;;;10.90;99.90;;;;;;5046686;28;20541;-81
2023/03/24 08:35:24;;;;;;;0.20;0.20;;;11.10;99.90;;;;;;5048381;28;20433;-82
2023/03/24 08:37:50;;;;;;;0.20;0.20;;;11.00;99.90;;;;;;5046111;28;20452;-83
2023/03/24 08:40:22;;;;;;;0.20;0.20;;;11.00;99.90;;;;;;5048467;28;20440;-82
2023/03/24 08:42:52;;;;;;;0.20;0.20;;;10.90;99.90;;;;;;5045413;28;20579;-81
2023/03/24 08:45:20;;;;;;;0.20;0.20;;;10.90;99.90;;;;;;5039023;28;20439;-82
2023/03/24 08:47:48;;;;;;;0.20;0.20;;;10.90;99.90;;;;;;5048630;28;20477;-82
2023/03/24 08:50:13;;;;;;;0.10;0.10;;;10.70;99.90;;;;;;5048291;28;20476;-81
2023/03/24 08:52:40;;;;;;;0.20;0.20;;;10.60;99.90;;;;;;5042738;28;20449;-82
2023/03/24 08:55:08;;;;;;;0.20;0.20;;;10.50;99.90;;;;;;5049584;28;20211;-83
2023/03/24 08:57:35;;;;;;;0.20;0.20;;;10.40;99.90;;;;;;5048233;28;20442;-82
2023/03/24 09:00:00;;;;;;;0.20;0.20;;;10.30;99.90;;;;;;5039791;28;20433;-82
2023/03/24 09:02:26;;;;;;;0.20;0.20;;;10.30;99.90;;;;;;5041040;28;20963;-83
2023/03/24 09:04:53;;;;;;;0.20;0.20;;;10.30;99.90;;;;;;5035735;28;20182;-82
2023/03/24 09:07:19;;;;;;;0.20;0.20;;;10.20;99.90;;;;;;5038772;28;20203;-81
2023/03/24 09:09:44;;;;;;;0.20;0.20;;;10.30;99.90;;;;;;5039170;28;20451;-81
2023/03/24 09:12:10;;;;;;;0.17;0.17;;;10.20;99.90;;;;;;5047662;28;20441;-82
2023/03/24 09:14:35;;;;;;;0.20;0.20;;;10.40;99.90;;;;;;5048399;28;20186;-83
2023/03/24 09:17:01;;;;;;;0.20;0.20;;;10.40;99.90;;;;;;5046834;28;20900;-84
2023/03/24 09:19:27;;;;;;;0.20;0.20;;;10.30;99.90;;;;;;5046051;28;20176;-84
2023/03/24 09:21:53;;;;;;;0.20;0.20;;;10.30;99.90;;;;;;5045038;28;20452;-84
2023/03/24 09:24:18;;;;;;;0.20;0.20;;;10.30;99.90;;;;;;5048354;28;20351;-84
2023/03/24 09:26:44;;;;;;;0.20;0.20;;;10.30;99.90;;;;;;5046189;28;20175;-84
2023/03/24 09:29:09;;;;;;;0.20;0.20;;;10.30;99.90;;;;;;5048657;28;20275;-84
2023/03/24 09:31:35;;;;;;;0.13;0.13;;;10.30;99.90;;;;;;5046862;28;20175;-83
2023/03/24 09:34:02;;;;;;;0.10;0.10;;;10.50;99.90;;;;;;5047592;28;20186;-82
2023/03/24 09:36:27;;;;;;;0.10;0.10;;;10.60;99.90;;;;;;5048552;28;20218;-82
2023/03/24 09:38:53;;;;;;;0.10;0.10;;;10.90;99.90;;;;;;5047067;28;20487;-82
2023/03/24 09:41:30;;;;;;;0.10;0.10;;;11.00;99.90;;;;;;5045742;28;20629;-83
2023/03/24 09:44:04;;;;;;;0.10;0.10;;;11.00;99.90;;;;;;5049048;28;20193;-84
2023/03/24 09:46:44;;;;;;;0.10;0.10;;;10.90;99.90;;;;;;5046563;28;20799;-83
2023/03/24 09:49:16;;;;;;;0.10;0.10;;;10.70;99.90;;;;;;5044084;28;20899;-83
2023/03/24 09:51:43;;;;;;;0.10;0.10;;;10.70;99.90;;;;;;5047852;28;20441;-84
2023/03/24 09:54:21;;;;;;;0.10;0.10;;;10.70;99.90;;;;;;5053132;28;20446;-82
2023/03/24 09:56:48;;;;;;;0.10;0.10;;;10.60;99.90;;;;;;5043995;28;20445;-83
2023/03/24 09:59:28;;;;;;;0.10;0.10;;;10.60;99.90;;;;;;5050314;28;20923;-83
2023/03/24 10:01:54;;;;;;;0.10;0.10;;;10.80;99.90;;;;;;5042151;28;20449;-83
2023/03/24 10:04:21;;;;;;;0.10;0.10;;;10.70;99.90;;;;;;5045288;28;20433;-83
2023/03/24 10:06:52;;;;;;;0.10;0.10;;;10.60;99.90;;;;;;5047936;28;20970;-83
2023/03/24 10:09:30;;;;;;;0.10;0.10;;;10.60;99.90;;;;;;5053018;28;20990;-82
2023/03/24 10:12:13;;;;;;;0.10;0.10;;;10.60;99.90;;;;;;5042155;28;21063;-83
2023/03/24 10:14:57;;;;;;;0.10;0.10;;;10.70;99.90;;;;;;5050283;28;20451;-83
2023/03/24 10:17:39;;;;;;;0.20;0.20;;;10.70;99.90;;;;;;5043616;28;20461;-84
2023/03/24 10:20:23;;;;;;;0.20;0.20;;;10.70;99.90;;;;;;5038252;28;20518;-83
2023/03/24 10:23:03;;;;;;;0.20;0.20;;;10.70;99.90;;;;;;5054737;28;20436;-83
2023/03/24 10:25:50;;;;;;;0.20;0.20;;;10.70;99.90;;;;;;5036844;28;20491;-83
2023/03/24 10:28:39;;;;;;;0.20;0.20;;;10.70;99.90;;;;;;5049032;28;20484;-83
2023/03/24 10:31:10;;;;;;;0.20;0.20;;;10.80;99.90;;;;;;5047554;28;20794;-83
2023/03/24 10:33:41;;;;;;;0.20;0.20;;;10.90;99.90;;;;;;5058711;28;20432;-83
2023/03/24 10:36:18;;;;;;;0.20;0.20;;;11.10;99.90;;;;;;5033054;28;20422;-83
2023/03/24 10:38:45;;;;;;;0.20;0.20;;;11.30;99.90;;;;;;5050691;28;20459;-83
2023/03/24 10:41:21;;;;;;;0.20;0.20;;;11.40;99.90;;;;;;5051309;28;20560;-83
2023/03/24 10:43:49;;;;;;;0.20;0.20;;;11.70;99.90;;;;;;5050486;28;20786;-84
2023/03/24 10:46:18;;;;;;;0.20;0.20;;;11.60;99.90;;;;;;5044199;28;20456;-85
2023/03/24 10:48:46;;;;;;;0.10;0.10;;;11.90;99.90;;;;;;5049574;28;20915;-82
2023/03/24 10:51:18;;;;;;;0.20;0.20;;;11.80;99.90;;;;;;5044760;28;20468;-82
2023/03/24 10:53:47;;;;;;;0.10;0.10;;;11.90;99.90;;;;;;5045889;28;20957;-85
2023/03/24 10:56:44;;;;;;;0.10;0.10;;;12.00;99.90;;;;;;5049832;28;20528;-84
2023/03/24 10:59:18;;;;;;;0.10;0.10;;;11.90;99.90;;;;;;5049737;28;20437;-81
2023/03/24 11:01:44;;;;;;;0.10;0.10;;;12.60;99.90;;;;;;5051980;28;20440;-83
2023/03/24 11:04:17;;;;;;;0.10;0.10;;;12.70;99.90;;;;;;5061607;28;20444;-85
2023/03/24 11:07:06;;;;;;;0.10;0.10;;;12.80;99.90;;;;;;5048928;28;20448;-86
2023/03/24 11:09:43;;;;;;;0.10;0.10;;;12.10;99.90;;;;;;5044884;28;20457;-81
2023/03/24 11:12:26;;;;;;;0.20;0.20;;;11.60;99.90;;;;;;5048994;28;21051;-82
2023/03/24 11:15:17;;;;;;;0.20;0.20;;;11.40;99.90;;;;;;5048651;28;20445;-82
2023/03/24 11:17:46;;;;;;;0.10;0.10;;;12.10;99.90;;;;;;5042090;28;21195;-82
2023/03/24 11:20:18;;;;;;;0.20;0.20;;;12.30;99.90;;;;;;5050747;28;20502;-85
2023/03/24 11:22:55;;;;;;;0.10;0.10;;;12.20;99.90;;;;;;5051604;28;20432;-82
2023/03/24 11:25:28;;;;;;;0.10;0.10;;;13.00;99.90;;;;;;5048775;28;20435;-82
2023/03/24 11:28:02;;;;;;;0.10;0.10;;;13.60;99.90;;;;;;5042046;28;20494;-82
2023/03/24 11:30:33;;;;;;;0.10;0.10;;;13.60;99.90;;;;;;5034508;28;20445;-83
2023/03/24 11:32:59;;;;;;;0.10;0.10;;;14.00;99.90;;;;;;5039361;28;20446;-83
2023/03/24 11:35:25;;;;;;;0.10;0.10;;;15.00;99.90;;;;;;5041842;28;20437;-82
2023/03/24 11:37:51;;;;;;;0.10;0.10;;;15.70;99.90;;;;;;5050592;28;20472;-83
2023/03/24 11:40:19;;;;;;;0.10;0.10;;;16.90;99.90;;;;;;5049053;28;20659;-83
2023/03/24 11:42:46;;;;;;;0.10;0.10;;;;;;;;;;5049515;28;20859;-82
2023/03/24 11:45:43;;;;;;;0.10;0.10;;;15.20;99.90;;;;;;5058397;28;20437;-83
2023/03/24 11:48:34;;;;;;;0.10;0.10;;;16.50;99.90;;;;;;5040130;28;21228;-82
2023/03/24 11:51:00;;;;;;;0.00;0.00;;;;;;;;;;5046751;28;20485;-83
2023/03/24 11:53:35;;;;;;;0.10;0.10;;;14.50;99.90;;;;;;5047467;28;20437;-82
2023/03/24 11:56:11;;;;;;;0.10;0.10;;;14.10;99.90;;;;;;5045582;28;20441;-81
2023/03/24 11:58:49;;;;;;;0.10;0.10;;;13.50;99.90;;;;;;5040792;28;20467;-82
2023/03/24 12:01:20;;;;;;;0.10;0.10;;;14.10;99.90;;;;;;5044600;28;20452;-82
2023/03/24 12:04:06;;;;;;;0.10;0.10;;;15.50;99.90;;;;;;5049582;28;20453;-82
2023/03/24 12:07:00;;;;;;;0.10;0.10;;;15.40;99.90;;;;;;5031081;28;20454;-80
2023/03/24 12:09:35;;;;;;;0.10;0.10;;;14.50;99.90;;;;;;5037574;28;20455;-87
2023/03/24 12:12:16;;;;;;;0.10;0.10;;;14.80;99.90;;;;;;5042493;28;20441;-86
2023/03/24 12:15:12;;;;;;;0.10;0.10;;;16.20;99.90;;;;;;5056362;28;20437;-86
2023/03/24 12:17:41;;;;;;;0.10;0.10;;;17.10;99.90;;;;;;5062529;28;20652;-86
2023/03/24 12:20:22;;;;;;;0.10;0.10;;;16.80;99.90;;;;;;5047894;28;20463;-85
2023/03/24 12:22:48;;;;;;;0.10;0.10;;;;;;;;;;5048621;28;20491;-82
2023/03/24 12:25:27;;;;;;;0.10;0.10;;;;;;;;;;5040900;28;20451;-86
2023/03/24 12:28:05;;;;;;;0.10;0.10;;;17.30;99.90;;;;;;5033711;28;20199;-86
2023/03/24 12:30:55;;;;;;;0.10;0.10;;;16.80;99.90;;;;;;5050789;28;20939;-86
2023/03/24 12:33:40;;;;;;;0.10;0.00;;;18.30;99.90;;;;;;5042289;28;20450;-85
2023/03/24 12:36:13;;;;;;;0.10;0.10;;;17.40;99.90;;;;;;5047809;28;20796;-86
2023/03/24 12:38:49;;;;;;;0.10;0.00;;;16.40;99.90;;;;;;5038657;28;20446;-85
2023/03/24 12:41:36;;;;;;;0.10;0.10;;;15.70;99.90;;;;;;5049653;28;20455;-85
2023/03/24 12:44:31;;;;;;;0.10;0.10;;;15.70;99.90;;;;;;5049005;28;20436;-85
2023/03/24 12:47:21;;;;;;;0.10;0.10;;;15.10;99.90;;;;;;5044214;28;20445;-86
2023/03/24 12:50:00;;;;;;;0.10;0.10;;;15.10;99.90;;;;;;5041636;28;20516;-85
2023/03/24 12:52:36;;;;;;;0.10;0.10;;;14.90;99.90;;;;;;5049740;28;20448;-86
2023/03/24 12:55:16;;;;;;;0.10;0.10;;;14.60;99.90;;;;;;5045283;28;20531;-85
2023/03/24 12:57:48;;;;;;;0.10;0.10;;;14.20;99.90;;;;;;5045426;28;20563;-86
2023/03/24 13:00:21;;;;;;;0.10;0.10;;;15.70;99.90;;;;;;5047589;28;20452;-87
2023/03/24 13:02:52;;;;;;;0.10;0.10;;;16.60;99.90;;;;;;5047184;28;20445;-87
2023/03/24 13:05:21;;;;;;;0.10;0.10;;;17.30;99.90;;;;;;5045092;28;20460;-88
2023/03/24 13:07:54;;;;;;;0.10;0.10;;;16.30;99.90;;;;;;5047826;28;20480;-85
2023/03/24 13:10:25;;;;;;;0.10;0.10;;;16.60;99.90;;;;;;5045050;28;20456;-86
2023/03/24 13:13:01;;;;;;;0.10;0.10;;;16.20;99.90;;;;;;5051432;28;20452;-86
2023/03/24 13:15:45;;;;;;;0.10;0.10;;;15.50;99.90;;;;;;5047482;28;21406;-85